Time;durP1;ratioP1;P1;durP2;ratioP2;P2;SDS_P1;SDS_P2;PMS_P1;PMS_P2;Temp;Humidity;BMP_temperature;BMP_pressure;BME280_temperature;BME280_humidity;BME280_pressure;Samples;Min_cycle;Max_cycle;Signal;HPM_P1;HPM_P2
2022/05/12 00:02:24;;;;;;;1.40;1.30;;;22.50;51.90;22.70;99876.00;;;;4954865;28;118191;-69
2022/05/12 00:04:49;;;;;;;3.10;1.90;;;22.50;51.90;22.60;99872.00;;;;4936601;28;117809;-69
2022/05/12 00:07:15;;;;;;;2.13;1.70;;;22.40;51.90;22.60;99869.00;;;;4937000;28;108991;-70
2022/05/12 00:09:41;;;;;;;1.27;1.17;;;22.40;52.00;22.60;99877.00;;;;4946138;28;108676;-69
2022/05/12 00:12:08;;;;;;;1.65;1.55;;;22.40;52.00;22.60;99876.00;;;;4956719;28;88856;-71
2022/05/12 00:14:34;;;;;;;1.83;1.33;;;22.30;52.00;22.50;99874.00;;;;4944673;28;88361;-70
2022/05/12 00:17:00;;;;;;;1.27;1.05;;;22.30;52.10;22.50;99874.00;;;;4955439;28;87753;-70
2022/05/12 00:19:29;;;;;;;2.22;1.38;;;22.30;52.20;22.40;99875.00;;;;4955058;28;87431;-69
2022/05/12 00:22:00;;;;;;;3.38;1.85;;;22.20;52.20;22.30;99882.00;;;;4956685;28;86842;-69
2022/05/12 00:24:26;;;;;;;2.47;1.40;;;22.20;52.40;22.30;99877.00;;;;4937548;28;116061;-68
2022/05/12 00:26:52;;;;;;;2.67;1.85;;;22.10;52.50;22.30;99879.00;;;;4936482;28;110673;-71
2022/05/12 00:29:18;;;;;;;3.35;1.33;;;22.10;52.60;22.30;99874.00;;;;4937820;28;98029;-69
2022/05/12 00:31:45;;;;;;;0.98;0.77;;;22.10;52.60;22.30;99871.00;;;;4935961;28;118072;-70
2022/05/12 00:34:13;;;;;;;1.85;1.52;;;22.10;52.60;22.30;99878.00;;;;4938564;28;88866;-69
2022/05/12 00:36:39;;;;;;;2.35;1.50;;;22.10;52.70;22.20;99869.00;;;;4938025;28;87916;-68
2022/05/12 00:39:05;;;;;;;1.48;1.35;;;22.00;52.70;22.20;99871.00;;;;4951596;28;108569;-69
2022/05/12 00:41:32;;;;;;;4.38;1.58;;;22.00;52.80;22.20;99872.00;;;;4939379;28;89264;-68
2022/05/12 00:44:04;;;;;;;3.65;1.80;;;22.00;52.90;22.20;99871.00;;;;4942794;28;89583;-68
2022/05/12 00:46:35;;;;;;;3.00;1.90;;;22.00;52.80;22.10;99872.00;;;;4937565;28;87071;-68
2022/05/12 00:49:13;;;;;;;1.40;1.30;;;21.90;52.90;22.10;99861.00;;;;4952188;28;88039;-71
2022/05/12 00:51:52;;;;;;;1.67;1.58;;;21.90;53.00;22.10;99862.00;;;;4968430;28;88290;-69
2022/05/12 00:54:27;;;;;;;2.40;1.65;;;21.90;53.10;22.00;99868.00;;;;4936753;28;88547;-69
2022/05/12 00:56:53;;;;;;;1.55;1.30;;;21.80;53.10;22.00;99861.00;;;;4935236;28;87966;-70
2022/05/12 00:59:28;;;;;;;1.60;1.50;;;21.80;53.20;21.90;99861.00;;;;4938187;28;108682;-69
2022/05/12 01:01:57;;;;;;;3.70;1.52;;;21.80;53.30;21.90;99872.00;;;;4946653;28;88037;-70
2022/05/12 01:04:23;;;;;;;2.08;1.15;;;21.70;53.30;21.90;99863.00;;;;4955481;28;107098;-71
2022/05/12 01:06:49;;;;;;;2.20;1.70;;;21.70;53.30;21.90;99864.00;;;;4951349;28;106955;-69
2022/05/12 01:09:15;;;;;;;1.27;1.17;;;21.70;53.20;21.80;99863.00;;;;4937175;28;88034;-71
2022/05/12 01:11:41;;;;;;;3.70;1.88;;;21.70;53.20;21.80;99865.00;;;;4936094;28;116597;-69
2022/05/12 01:14:08;;;;;;;1.73;1.13;;;21.60;53.20;21.80;99872.00;;;;4965983;28;87715;-69
2022/05/12 01:16:45;;;;;;;1.77;1.42;;;21.60;53.20;21.70;99860.00;;;;4956689;28;87929;-68
2022/05/12 01:19:22;;;;;;;1.95;1.02;;;21.50;53.10;21.70;99860.00;;;;4954822;28;88882;-71
2022/05/12 01:22:09;;;;;;;1.65;1.38;;;21.50;53.10;21.70;99865.00;;;;4954247;28;88049;-69
2022/05/12 01:24:42;;;;;;;2.45;1.13;;;21.50;53.10;21.70;99864.00;;;;4948377;28;87694;-69
2022/05/12 01:27:22;;;;;;;3.28;1.77;;;21.50;53.00;21.60;99861.00;;;;4937282;28;87795;-69
2022/05/12 01:29:55;;;;;;;0.70;0.70;;;21.40;52.90;21.70;99860.00;;;;4959805;28;87936;-70
2022/05/12 01:32:27;;;;;;;3.25;1.35;;;21.40;52.90;21.60;99861.00;;;;4950895;28;88985;-69
2022/05/12 01:34:53;;;;;;;2.10;1.52;;;21.40;52.80;21.60;99864.00;;;;4936534;28;109875;-70
2022/05/12 01:37:21;;;;;;;5.25;1.90;;;21.40;52.80;21.60;99871.00;;;;4936439;28;101691;-71
2022/05/12 01:39:46;;;;;;;2.42;1.85;;;21.40;52.70;21.60;99864.00;;;;4936220;28;87612;-69
2022/05/12 01:42:12;;;;;;;2.67;1.08;;;21.40;52.70;21.60;99868.00;;;;4936312;28;118162;-69
2022/05/12 01:44:40;;;;;;;4.88;1.00;;;21.40;52.70;21.60;99858.00;;;;4934708;28;115939;-71
2022/05/12 01:47:06;;;;;;;1.48;1.15;;;21.40;52.70;21.60;99863.00;;;;4951818;28;87852;-70
2022/05/12 01:49:32;;;;;;;1.50;1.40;;;21.40;52.70;21.60;99856.00;;;;4950774;28;93168;-68
2022/05/12 01:52:00;;;;;;;2.30;1.25;;;21.40;52.60;21.60;99860.00;;;;4937476;28;91551;-69
2022/05/12 01:54:28;;;;;;;2.13;1.23;;;21.40;52.60;21.60;99860.00;;;;4935774;28;88568;-70
2022/05/12 01:56:55;;;;;;;1.80;1.23;;;21.40;52.50;21.60;99870.00;;;;4958295;28;87800;-69
2022/05/12 01:59:22;;;;;;;1.45;1.17;;;21.40;52.30;21.60;99862.00;;;;4953341;28;87870;-70
2022/05/12 02:01:48;;;;;;;2.53;1.13;;;21.40;52.40;21.60;99868.00;;;;4955471;28;88009;-69
2022/05/12 02:04:15;;;;;;;1.88;1.23;;;21.40;52.30;21.60;99870.00;;;;4953178;28;91819;-69
2022/05/12 02:06:42;;;;;;;1.08;0.98;;;21.40;52.30;21.60;99876.00;;;;4939715;28;103222;-71
2022/05/12 02:09:09;;;;;;;2.13;1.55;;;21.40;52.30;21.60;99876.00;;;;4939467;28;88589;-69
2022/05/12 02:11:35;;;;;;;1.10;0.70;;;21.40;52.30;21.60;99878.00;;;;4955823;28;88877;-69
2022/05/12 02:14:01;;;;;;;1.67;1.00;;;21.40;52.30;21.60;99882.00;;;;4936681;28;115214;-70
2022/05/12 02:16:29;;;;;;;1.77;1.48;;;21.40;52.30;21.60;99883.00;;;;4935152;28;95583;-70
2022/05/12 02:18:55;;;;;;;1.33;1.23;;;21.30;52.20;21.50;99883.00;;;;4935508;28;87974;-69
2022/05/12 02:21:21;;;;;;;3.17;1.67;;;21.30;52.20;21.50;99895.00;;;;4934775;28;117192;-69
2022/05/12 02:23:47;;;;;;;1.10;0.95;;;21.30;52.30;21.50;99894.00;;;;4949858;28;117371;-68
2022/05/12 02:26:13;;;;;;;1.20;1.05;;;21.30;52.40;21.40;99888.00;;;;4953617;28;102534;-70
2022/05/12 02:28:40;;;;;;;1.67;1.00;;;21.20;52.30;21.40;99883.00;;;;4953179;28;102502;-71
2022/05/12 02:31:05;;;;;;;2.42;1.42;;;21.20;52.30;21.40;99895.00;;;;4952706;28;88145;-69
2022/05/12 02:33:31;;;;;;;1.00;0.90;;;21.20;52.30;21.40;99884.00;;;;4940674;28;102574;-71
2022/05/12 02:35:57;;;;;;;1.52;1.05;;;21.20;52.30;21.40;99890.00;;;;4936104;28;88159;-69
2022/05/12 02:38:23;;;;;;;1.73;1.25;;;21.20;52.30;21.40;99891.00;;;;4935994;28;109108;-71
2022/05/12 02:40:48;;;;;;;2.50;1.60;;;21.20;52.30;21.40;99900.00;;;;4932791;28;116531;-70
2022/05/12 02:43:23;;;;;;;1.45;1.17;;;21.20;52.30;21.40;99902.00;;;;4944667;28;118491;-71
2022/05/12 02:45:54;;;;;;;3.42;1.38;;;21.20;52.30;21.40;99899.00;;;;4955290;28;87931;-71
2022/05/12 02:48:24;;;;;;;1.67;1.15;;;21.20;52.20;21.40;99895.00;;;;4953859;28;87765;-69
2022/05/12 02:50:50;;;;;;;2.85;0.90;;;21.20;52.20;21.40;99902.00;;;;4952585;28;97845;-68
2022/05/12 02:53:16;;;;;;;1.33;1.23;;;21.20;52.20;21.40;99907.00;;;;4949228;28;116727;-69
2022/05/12 02:55:42;;;;;;;1.77;1.02;;;21.20;52.10;21.40;99919.00;;;;4954647;28;96872;-69
2022/05/12 02:58:08;;;;;;;2.75;1.85;;;21.10;52.00;21.40;99917.00;;;;4953737;28;109246;-70
2022/05/12 03:00:34;;;;;;;1.15;1.00;;;21.10;52.00;21.30;99920.00;;;;4920885;28;113131;-69
2022/05/12 03:03:00;;;;;;;1.23;0.85;;;21.10;52.00;21.30;99925.00;;;;4943832;28;88563;-70
2022/05/12 03:05:27;;;;;;;0.95;0.90;;;21.10;52.10;21.30;99940.00;;;;4934385;28;110522;-69
2022/05/12 03:07:53;;;;;;;1.23;1.13;;;21.10;52.40;21.20;99948.00;;;;4948427;28;87728;-69
2022/05/12 03:10:20;;;;;;;2.78;1.42;;;21.10;52.40;21.20;99951.00;;;;4935892;28;87893;-71
2022/05/12 03:12:46;;;;;;;1.83;1.05;;;21.00;52.40;21.10;99946.00;;;;4952665;28;88199;-68
2022/05/12 03:15:12;;;;;;;1.92;1.58;;;21.00;52.50;21.10;99956.00;;;;4953735;28;110660;-69
2022/05/12 03:17:39;;;;;;;1.80;1.13;;;20.90;52.60;21.00;99956.00;;;;4954796;28;88071;-69
2022/05/12 03:20:09;;;;;;;2.28;1.30;;;20.80;52.60;21.00;99960.00;;;;4955047;28;88096;-69
2022/05/12 03:22:36;;;;;;;1.38;1.02;;;20.80;52.80;20.90;99967.00;;;;4951134;28;90501;-68
2022/05/12 03:25:03;;;;;;;1.58;1.25;;;20.70;52.90;20.90;99954.00;;;;4953829;28;87546;-68
2022/05/12 03:27:30;;;;;;;1.20;1.05;;;20.70;53.10;20.80;99967.00;;;;4939088;28;87525;-72
2022/05/12 03:29:56;;;;;;;1.42;1.10;;;20.70;53.20;20.80;99971.00;;;;4961297;28;107487;-70
2022/05/12 03:32:23;;;;;;;2.97;0.88;;;20.60;53.30;20.70;99985.00;;;;4938137;28;111440;-68
2022/05/12 03:34:49;;;;;;;1.15;0.63;;;20.50;53.40;20.70;99974.00;;;;4947683;28;87837;-69
2022/05/12 03:37:16;;;;;;;3.00;1.08;;;20.50;53.40;20.60;99981.00;;;;4956179;28;89570;-71
2022/05/12 03:39:43;;;;;;;1.63;0.93;;;20.40;53.60;20.50;99983.00;;;;4954540;28;87124;-71
2022/05/12 03:42:12;;;;;;;1.35;1.13;;;20.40;53.80;20.50;99992.00;;;;4957283;28;88225;-69
2022/05/12 03:44:47;;;;;;;0.90;0.88;;;20.30;53.90;20.40;100011.00;;;;4938851;28;87704;-69
2022/05/12 03:47:35;;;;;;;1.67;1.02;;;20.30;54.00;20.40;100011.00;;;;4951300;28;88967;-71
2022/05/12 03:50:22;;;;;;;1.42;0.80;;;20.20;54.10;20.40;100012.00;;;;4959931;28;107585;-69
2022/05/12 03:52:52;;;;;;;1.75;1.00;;;20.20;54.30;20.40;100036.00;;;;4937234;28;110007;-70
2022/05/12 03:55:23;;;;;;;1.98;1.30;;;20.20;54.20;20.40;100046.00;;;;4951367;28;88044;-71
2022/05/12 03:57:52;;;;;;;0.90;0.70;;;20.20;54.20;20.40;100044.00;;;;4958263;28;87506;-70
2022/05/12 04:00:26;;;;;;;0.95;0.80;;;20.20;54.30;20.40;100045.00;;;;4942032;28;87877;-70
2022/05/12 04:02:52;;;;;;;1.40;0.80;;;20.20;54.30;20.40;100062.00;;;;4949398;28;88391;-69
2022/05/12 04:05:20;;;;;;;1.30;0.98;;;20.20;54.40;20.40;100089.00;;;;4952345;28;110463;-70
2022/05/12 04:07:46;;;;;;;1.48;1.17;;;20.20;54.60;20.30;100106.00;;;;4937770;28;87844;-71
2022/05/12 04:10:15;;;;;;;1.90;1.60;;;20.10;55.50;20.30;100120.00;;;;4950662;28;88524;-70
2022/05/12 04:12:41;;;;;;;1.73;1.52;;;20.20;56.00;20.20;100136.00;;;;4950747;28;117343;-69
2022/05/12 04:15:08;;;;;;;3.55;1.73;;;20.10;57.30;20.10;100157.00;;;;4936839;28;110660;-69
2022/05/12 04:17:34;;;;;;;3.53;2.38;;;20.00;58.20;20.00;100152.00;;;;4938093;28;87680;-68
2022/05/12 04:20:12;;;;;;;2.85;1.55;;;19.90;58.70;19.90;100155.00;;;;4936671;28;117734;-67
2022/05/12 04:22:40;;;;;;;4.47;1.55;;;19.80;58.90;19.90;100149.00;;;;4963792;28;88244;-66
2022/05/12 04:25:07;;;;;;;1.70;1.33;;;19.70;59.30;19.80;100164.00;;;;4937642;28;87527;-65
2022/05/12 04:27:40;;;;;;;1.83;1.35;;;19.70;59.70;19.70;100164.00;;;;4937867;28;87888;-67
2022/05/12 04:30:09;;;;;;;1.92;1.70;;;19.60;60.40;19.80;100169.00;;;;4963506;28;88564;-67
2022/05/12 04:32:34;;;;;;;1.88;1.65;;;19.60;60.80;19.80;100178.00;;;;4937440;28;87923;-68
2022/05/12 04:35:14;;;;;;;2.08;1.65;;;19.60;61.00;19.90;100194.00;;;;4948435;28;88042;-67
2022/05/12 04:37:47;;;;;;;2.88;1.38;;;19.70;61.60;19.90;100194.00;;;;4955580;28;88927;-66
2022/05/12 04:40:29;;;;;;;1.83;1.38;;;19.70;61.10;20.00;100200.00;;;;4955570;28;88161;-68
2022/05/12 04:42:58;;;;;;;2.90;1.17;;;19.80;61.00;20.00;100211.00;;;;4953269;28;88867;-67
2022/05/12 04:45:27;;;;;;;2.22;1.75;;;19.80;61.40;20.00;100195.00;;;;4964298;28;87807;-66
2022/05/12 04:47:53;;;;;;;2.90;2.00;;;19.80;61.70;19.90;100207.00;;;;4936710;28;100001;-67
2022/05/12 04:50:34;;;;;;;1.55;1.20;;;19.80;61.70;19.90;100226.00;;;;4950666;28;117252;-65
2022/05/12 04:53:02;;;;;;;1.70;1.40;;;19.70;62.20;19.80;100227.00;;;;4952278;28;96802;-66
2022/05/12 04:55:28;;;;;;;4.65;0.90;;;19.70;62.30;19.90;100226.00;;;;4953231;28;87373;-66
2022/05/12 04:57:56;;;;;;;2.65;1.65;;;19.70;63.30;19.90;100235.00;;;;4956413;28;100044;-65
2022/05/12 05:00:33;;;;;;;4.13;1.20;;;19.70;62.40;20.00;100243.00;;;;4942178;28;88969;-66
2022/05/12 05:03:00;;;;;;;1.25;0.98;;;19.80;62.50;20.10;100251.00;;;;4948692;28;93212;-66
2022/05/12 05:05:26;;;;;;;1.35;0.93;;;19.80;62.30;20.10;100255.00;;;;4940534;28;110746;-66
2022/05/12 05:07:52;;;;;;;0.60;0.60;;;19.90;62.30;20.00;100261.00;;;;4936349;28;98954;-65
2022/05/12 05:10:22;;;;;;;0.95;0.95;;;19.80;62.20;19.90;100252.00;;;;4950507;28;88933;-66
2022/05/12 05:12:48;;;;;;;1.33;0.80;;;19.80;62.50;19.90;100264.00;;;;4953455;28;87601;-66
2022/05/12 05:15:15;;;;;;;3.10;1.27;;;19.70;62.70;19.80;100262.00;;;;4936728;28;87721;-67
2022/05/12 05:17:43;;;;;;;1.73;0.93;;;19.60;62.90;19.70;100276.00;;;;4936728;28;87673;-66
2022/05/12 05:20:19;;;;;;;1.13;0.60;;;19.60;63.40;19.70;100278.00;;;;4945902;28;87962;-66
2022/05/12 05:22:52;;;;;;;0.90;0.90;;;19.50;63.60;19.70;100273.00;;;;4934260;28;87945;-65
2022/05/12 05:25:18;;;;;;;1.65;1.17;;;19.50;64.00;19.70;100285.00;;;;4956779;28;87635;-66
2022/05/12 05:27:45;;;;;;;1.20;0.93;;;19.50;64.30;19.60;100288.00;;;;4956383;28;88806;-66
2022/05/12 05:30:24;;;;;;;2.05;1.25;;;19.40;64.50;19.60;100291.00;;;;4954318;28;88352;-65
2022/05/12 05:32:50;;;;;;;1.25;1.15;;;19.40;65.50;19.60;100288.00;;;;4954538;28;87745;-66
2022/05/12 05:35:23;;;;;;;1.58;0.82;;;19.40;65.40;19.60;100309.00;;;;4936868;28;88205;-66
2022/05/12 05:37:52;;;;;;;0.52;0.52;;;19.40;65.10;19.60;100317.00;;;;4951304;28;87644;-67
2022/05/12 05:40:22;;;;;;;2.83;1.15;;;19.40;65.50;19.70;100306.00;;;;4937291;28;89020;-69
2022/05/12 05:42:48;;;;;;;1.13;0.63;;;19.40;65.80;19.70;100335.00;;;;4963479;28;90691;-66
2022/05/12 05:45:17;;;;;;;2.80;0.65;;;19.50;65.90;19.60;100334.00;;;;4935534;28;102458;-66
2022/05/12 05:47:51;;;;;;;0.93;0.75;;;19.50;66.20;19.60;100341.00;;;;4936280;28;87886;-67
2022/05/12 05:50:22;;;;;;;0.50;0.50;;;19.40;66.10;19.50;100352.00;;;;4937436;28;88279;-66
2022/05/12 05:55:32;;;;;;;1.85;0.90;;;19.30;67.50;19.60;100352.00;;;;4937906;28;87690;-67
2022/05/12 05:58:04;;;;;;;1.10;0.50;;;19.40;67.30;19.80;100350.00;;;;4937873;28;87748;-65
2022/05/12 06:00:34;;;;;;;1.88;1.00;;;19.60;67.30;20.00;100368.00;;;;4934142;28;89132;-67
2022/05/12 06:03:00;;;;;;;0.88;0.77;;;19.70;67.20;20.00;100359.00;;;;4948547;28;88816;-66
2022/05/12 06:05:28;;;;;;;0.80;0.80;;;19.80;66.80;20.00;100378.00;;;;4954731;28;88189;-66
2022/05/12 06:07:54;;;;;;;0.75;0.73;;;19.80;66.10;20.00;100374.00;;;;4954416;28;87876;-66
2022/05/12 06:10:22;;;;;;;1.40;1.10;;;19.80;66.20;19.90;100384.00;;;;4952826;28;88436;-66
2022/05/12 06:12:49;;;;;;;2.90;0.98;;;19.80;66.50;19.90;100393.00;;;;4955479;28;87766;-66
2022/05/12 06:15:15;;;;;;;1.20;0.80;;;19.70;66.40;19.90;100380.00;;;;4955652;28;88389;-66
2022/05/12 06:17:41;;;;;;;2.10;1.00;;;19.70;65.60;19.80;100394.00;;;;4940133;28;88573;-67
2022/05/12 06:20:11;;;;;;;11.48;1.27;;;19.60;65.60;19.80;100406.00;;;;4944271;28;89917;-66
2022/05/12 06:22:40;;;;;;;1.20;0.70;;;19.60;65.90;19.80;100415.00;;;;4939072;28;87609;-67
2022/05/12 06:25:10;;;;;;;0.93;0.85;;;19.60;65.90;19.80;100429.00;;;;4935311;28;109500;-66
2022/05/12 06:27:36;;;;;;;0.60;0.60;;;19.60;65.30;19.80;100435.00;;;;4939042;28;87878;-65
2022/05/12 06:30:04;;;;;;;1.48;0.93;;;19.60;65.00;19.80;100426.00;;;;4937067;28;117606;-65
2022/05/12 06:32:30;;;;;;;1.13;0.45;;;19.60;64.80;19.80;100438.00;;;;4935455;28;88781;-65
2022/05/12 06:34:56;;;;;;;0.63;0.50;;;19.60;62.90;19.90;100435.00;;;;4936399;28;86845;-66
2022/05/12 06:37:22;;;;;;;6.13;0.88;;;19.70;62.50;20.00;100443.00;;;;4936378;28;88013;-66
2022/05/12 06:39:48;;;;;;;2.13;0.32;;;19.70;62.20;20.10;100433.00;;;;4935908;28;116953;-67
2022/05/12 06:42:17;;;;;;;0.45;0.32;;;19.80;60.70;20.20;100442.00;;;;4939359;28;117742;-66
2022/05/12 06:44:45;;;;;;;4.80;0.55;;;20.00;60.00;20.40;100460.00;;;;4935322;28;87590;-66
2022/05/12 06:47:14;;;;;;;1.77;0.65;;;20.10;59.60;20.60;100462.00;;;;4934859;28;110041;-66
2022/05/12 06:49:40;;;;;;;1.27;0.47;;;20.30;59.40;20.80;100447.00;;;;4954909;28;87703;-66
2022/05/12 06:52:08;;;;;;;0.30;0.30;;;20.50;58.70;20.90;100450.00;;;;4934734;28;109015;-66
2022/05/12 06:54:36;;;;;;;0.40;0.40;;;20.60;58.20;21.10;100471.00;;;;4936220;28;88089;-65
2022/05/12 06:57:02;;;;;;;0.88;0.73;;;20.80;57.90;21.20;100470.00;;;;4936638;28;99179;-66
2022/05/12 06:59:28;;;;;;;2.25;0.90;;;20.90;57.50;21.30;100476.00;;;;4945067;28;94358;-65
2022/05/12 07:01:54;;;;;;;0.85;0.40;;;21.00;57.50;21.40;100494.00;;;;4941548;28;108430;-66
2022/05/12 07:05:15;;;;;;;0.50;0.40;;;21.20;57.30;21.40;100488.00;;;;4957011;28;105783;-66
2022/05/12 07:07:43;;;;;;;2.38;0.68;;;21.20;56.40;21.50;100485.00;;;;4938976;28;88855;-66
2022/05/12 07:10:11;;;;;;;0.75;0.55;;;21.30;55.80;21.50;100496.00;;;;4944971;28;88814;-67
2022/05/12 07:12:37;;;;;;;0.45;0.40;;;21.30;54.30;21.50;100486.00;;;;4939127;28;88117;-65
2022/05/12 07:15:04;;;;;;;0.57;0.30;;;21.30;52.60;21.50;100497.00;;;;4938462;28;87424;-66
2022/05/12 07:17:32;;;;;;;0.20;0.20;;;21.30;51.70;21.40;100515.00;;;;4938704;28;87882;-66
2022/05/12 07:28:13;;;;;;;0.57;0.43;;;21.40;50.80;21.50;100538.00;;;;4951451;28;87847;-65
2022/05/12 07:33:23;;;;;;;1.10;0.40;;;21.40;50.40;21.80;100551.00;;;;4956722;28;88670;-66
2022/05/12 07:35:49;;;;;;;0.77;0.25;;;21.60;48.50;21.90;100565.00;;;;4955777;28;110982;-67
2022/05/12 07:38:16;;;;;;;0.50;0.38;;;21.70;48.00;22.00;100558.00;;;;4937091;28;109025;-70
2022/05/12 07:40:42;;;;;;;1.20;0.60;;;21.80;46.50;21.90;100565.00;;;;4937659;28;89063;-70
2022/05/12 07:43:07;;;;;;;2.55;0.93;;;21.80;46.50;21.80;100567.00;;;;4937278;28;109600;-71
2022/05/12 07:45:34;;;;;;;3.35;0.55;;;21.70;46.50;21.80;100561.00;;;;4938204;28;108435;-69
2022/05/12 07:47:59;;;;;;;1.20;0.50;;;21.70;45.80;21.80;100571.00;;;;4971099;28;87815;-68
2022/05/12 07:50:28;;;;;;;6.20;0.57;;;21.70;46.00;21.80;100580.00;;;;4937883;28;117307;-69
2022/05/12 07:52:54;;;;;;;0.30;0.30;;;21.70;45.20;21.70;100567.00;;;;4938385;28;88080;-70
2022/05/12 07:55:29;;;;;;;0.68;0.47;;;21.70;44.60;21.60;100588.00;;;;4950719;28;102543;-69
2022/05/12 07:57:55;;;;;;;0.10;0.10;;;21.50;44.80;21.50;100591.00;;;;4939770;28;108390;-71
2022/05/12 08:00:21;;;;;;;0.10;0.10;;;21.40;45.10;21.70;100599.00;;;;4965772;28;117751;-70
2022/05/12 08:02:50;;;;;;;2.17;0.43;;;21.50;44.50;21.70;100604.00;;;;4957410;28;87665;-70
2022/05/12 08:05:15;;;;;;;1.15;0.32;;;21.60;44.40;21.90;100610.00;;;;4952175;28;88929;-70
2022/05/12 08:07:43;;;;;;;0.17;0.17;;;21.70;44.10;21.90;100615.00;;;;4937027;28;96417;-69
2022/05/12 08:10:09;;;;;;;0.30;0.30;;;21.70;43.60;21.70;100628.00;;;;4935486;28;90210;-68
2022/05/12 08:12:35;;;;;;;0.68;0.55;;;21.70;43.40;21.70;100636.00;;;;4941805;28;115078;-69
2022/05/12 08:15:01;;;;;;;1.75;0.20;;;21.60;44.00;21.80;100640.00;;;;4936961;28;110778;-71
2022/05/12 08:17:26;;;;;;;0.20;0.20;;;21.70;44.90;22.00;100648.00;;;;4949451;28;87679;-69
2022/05/12 08:19:52;;;;;;;0.10;0.10;;;21.80;45.30;22.30;100667.00;;;;4955104;28;117298;-69
2022/05/12 08:22:21;;;;;;;1.08;0.38;;;22.00;45.60;22.40;100657.00;;;;4936202;28;117957;-70
2022/05/12 08:24:47;;;;;;;0.10;0.10;;;22.20;44.70;22.50;100675.00;;;;4937748;28;87632;-69
2022/05/12 08:27:13;;;;;;;1.15;0.28;;;22.30;44.00;22.50;100680.00;;;;4947483;28;87871;-69
2022/05/12 08:29:41;;;;;;;0.57;0.32;;;22.30;42.70;22.30;100683.00;;;;4956268;28;88945;-70
2022/05/12 08:32:07;;;;;;;0.20;0.10;;;22.20;42.50;22.10;100699.00;;;;4957478;28;88196;-69
2022/05/12 08:34:33;;;;;;;0.75;0.45;;;22.00;41.80;21.80;100714.00;;;;4949384;28;87563;-70
2022/05/12 08:37:24;;;;;;;0.43;0.30;;;21.80;42.30;21.60;100709.00;;;;4944059;28;94029;-69
2022/05/12 08:39:50;;;;;;;0.10;0.10;;;21.60;43.00;21.40;100716.00;;;;4953715;28;116358;-68
2022/05/12 08:42:28;;;;;;;0.22;0.17;;;21.40;43.70;21.50;100717.00;;;;4952297;28;92625;-71
2022/05/12 08:44:56;;;;;;;0.40;0.40;;;21.40;44.20;21.40;100725.00;;;;4937628;28;87860;-69
2022/05/12 08:47:29;;;;;;;0.00;0.00;;;21.30;44.40;21.40;100729.00;;;;4937707;28;89383;-68
2022/05/12 08:49:56;;;;;;;0.30;0.30;;;21.30;44.70;21.40;100705.00;;;;4936960;28;88239;-69
2022/05/12 08:52:31;;;;;;;0.47;0.13;;;21.30;45.00;21.40;100714.00;;;;4935875;28;118622;-71
2022/05/12 08:55:21;;;;;;;0.10;0.10;;;21.30;45.40;21.50;100716.00;;;;4958784;28;87683;-70
2022/05/12 08:58:00;;;;;;;0.90;0.20;;;21.30;45.80;21.70;100721.00;;;;4938170;28;87501;-68
2022/05/12 09:00:33;;;;;;;1.08;0.35;;;21.50;46.00;22.00;100712.00;;;;4946910;28;111894;-69
2022/05/12 09:03:30;;;;;;;0.95;0.30;;;21.70;45.70;22.00;100725.00;;;;4956554;28;94291;-69
2022/05/12 09:06:16;;;;;;;0.32;0.30;;;21.80;44.60;22.10;100727.00;;;;4947019;28;87019;-70
2022/05/12 09:09:11;;;;;;;5.18;0.45;;;21.90;44.70;22.10;100732.00;;;;4934689;28;87687;-68
2022/05/12 09:11:56;;;;;;;0.10;0.10;;;21.90;44.40;22.10;100739.00;;;;4934762;28;89488;-69
2022/05/12 09:14:45;;;;;;;0.32;0.22;;;22.00;43.90;22.00;100746.00;;;;4940162;28;99996;-69
2022/05/12 09:17:23;;;;;;;0.30;0.30;;;21.90;44.00;22.00;100737.00;;;;4949582;28;87721;-70
2022/05/12 09:19:48;;;;;;;0.20;0.20;;;21.80;44.00;22.10;100746.00;;;;4955089;28;87923;-69
2022/05/12 09:22:23;;;;;;;0.57;0.57;;;21.90;44.40;22.30;100758.00;;;;4956743;28;118405;-69
2022/05/12 09:24:49;;;;;;;0.22;0.20;;;22.00;44.20;22.40;100757.00;;;;4950758;28;88371;-70
2022/05/12 09:27:15;;;;;;;0.32;0.32;;;22.10;44.00;22.40;100761.00;;;;4942653;28;110398;-68
2022/05/12 09:29:49;;;;;;;0.20;0.20;;;22.20;43.90;22.60;100758.00;;;;4953448;28;108366;-69
2022/05/12 09:32:38;;;;;;;0.20;0.20;;;22.30;43.90;22.80;100769.00;;;;4954485;28;98386;-70
2022/05/12 09:35:19;;;;;;;0.80;0.35;;;22.50;44.20;23.10;100769.00;;;;4953966;28;88111;-68
2022/05/12 09:37:45;;;;;;;0.17;0.17;;;22.70;44.00;23.20;100766.00;;;;4945740;28;87800;-68
2022/05/12 09:40:34;;;;;;;0.57;0.43;;;22.80;44.00;23.40;100775.00;;;;4934543;28;109466;-68
2022/05/12 09:43:25;;;;;;;1.35;0.35;;;23.00;43.50;23.60;100766.00;;;;4936192;28;87975;-69
2022/05/12 09:46:06;;;;;;;2.13;0.45;;;23.20;42.00;23.60;100764.00;;;;4932710;28;87823;-71
2022/05/12 09:48:50;;;;;;;0.00;0.00;;;23.30;41.80;23.60;100769.00;;;;4938073;28;87884;-69
2022/05/12 09:51:25;;;;;;;0.82;0.30;;;23.30;41.50;23.60;100774.00;;;;4953770;28;97469;-69
2022/05/12 09:53:54;;;;;;;0.10;0.10;;;23.30;41.50;23.70;100773.00;;;;4954572;28;87720;-68
2022/05/12 09:56:34;;;;;;;0.10;0.10;;;23.40;41.60;23.90;100774.00;;;;4954491;28;88351;-69
2022/05/12 09:59:15;;;;;;;0.10;0.10;;;23.50;41.30;24.10;100774.00;;;;4951439;28;87297;-70
2022/05/12 10:02:07;;;;;;;0.68;0.17;;;23.70;40.90;24.30;100774.00;;;;4937300;28;107581;-69
2022/05/12 10:10:26;;;;;;;0.28;0.28;;;24.30;40.00;25.10;100767.00;;;;4934641;28;87948;-69
2022/05/12 10:13:00;;;;;;;0.10;0.10;;;24.60;39.80;25.10;100762.00;;;;4959941;28;88273;-68
2022/05/12 10:15:34;;;;;;;1.38;0.25;;;24.60;39.40;25.00;100784.00;;;;4933625;28;94859;-68
2022/05/12 10:18:10;;;;;;;0.57;0.50;;;24.60;39.30;25.10;100777.00;;;;4966542;28;89164;-69
2022/05/12 10:20:47;;;;;;;0.10;0.03;;;24.60;39.00;25.30;100773.00;;;;4940894;28;87911;-69
2022/05/12 10:23:31;;;;;;;8.65;0.32;;;24.80;38.60;25.50;100773.00;;;;4933417;28;102351;-69
2022/05/12 10:26:11;;;;;;;0.73;0.20;;;24.90;38.50;25.70;100773.00;;;;4936338;28;109584;-70
2022/05/12 10:28:39;;;;;;;0.15;0.15;;;25.10;38.30;25.70;100773.00;;;;4951276;28;87642;-70
2022/05/12 10:31:27;;;;;;;0.30;0.30;;;25.20;38.30;25.70;100786.00;;;;4955218;28;87638;-69
2022/05/12 10:34:34;;;;;;;0.20;0.20;;;25.20;37.60;25.80;100786.00;;;;4956783;28;88811;-71
2022/05/12 10:37:21;;;;;;;0.10;0.10;;;25.30;37.60;25.80;100786.00;;;;4953611;28;88399;-71
2022/05/12 10:40:34;;;;;;;0.10;0.10;;;25.30;37.70;25.90;100783.00;;;;4945223;28;88115;-69
2022/05/12 10:43:33;;;;;;;0.20;0.20;;;25.40;37.50;26.20;100772.00;;;;4957313;28;88020;-69
2022/05/12 10:46:20;;;;;;;0.08;0.08;;;25.60;37.70;26.30;100773.00;;;;4940081;28;87829;-70
2022/05/12 10:48:58;;;;;;;0.00;0.00;;;25.80;36.50;26.40;100778.00;;;;4937352;28;101733;-71
2022/05/12 10:51:52;;;;;;;2.83;0.20;;;25.80;35.80;26.00;100774.00;;;;4938135;28;88453;-69
2022/05/12 10:54:56;;;;;;;0.10;0.10;;;25.70;34.80;25.80;100776.00;;;;4956595;28;101991;-69
2022/05/12 10:57:30;;;;;;;1.65;0.32;;;25.40;35.30;25.80;100777.00;;;;4958708;28;87918;-69
2022/05/12 11:00:22;;;;;;;1.08;0.20;;;25.40;36.50;26.20;100788.00;;;;4954845;28;105646;-72
2022/05/12 11:03:01;;;;;;;0.32;0.25;;;25.60;37.00;26.50;100781.00;;;;4958222;28;88382;-71
2022/05/12 11:05:34;;;;;;;0.17;0.10;;;25.90;35.90;26.50;100776.00;;;;4951817;28;87944;-71
2022/05/12 11:08:24;;;;;;;0.20;0.20;;;26.00;35.30;26.40;100780.00;;;;4936941;28;87669;-70
2022/05/12 11:11:17;;;;;;;0.95;0.47;;;26.00;35.00;26.20;100779.00;;;;4946427;28;107461;-69
2022/05/12 11:14:11;;;;;;;0.22;0.20;;;25.80;35.30;26.00;100780.00;;;;4937357;28;87754;-69
2022/05/12 11:17:01;;;;;;;0.15;0.15;;;25.70;35.60;26.10;100779.00;;;;4956451;28;87895;-70
2022/05/12 11:19:27;;;;;;;6.03;0.35;;;25.70;35.30;26.30;100788.00;;;;4953922;28;87811;-72
2022/05/12 11:23:07;;;;;;;0.63;0.20;;;25.80;35.60;26.40;100788.00;;;;4938787;28;87443;-72
2022/05/12 11:26:05;;;;;;;0.10;0.10;;;25.90;34.40;26.40;100790.00;;;;4935257;28;88194;-69
2022/05/12 11:32:09;;;;;;;0.25;0.25;;;26.00;35.10;26.70;100793.00;;;;4933879;28;88628;-69